This is the latest recevied weather packets stored in our database for station/object DK6GC-10. If no packets are shown the sender has not sent any weather packets the latest 10 day(s).
| Time | Temp. | Humidity | Pressure | Rain* | Wind** | Luminosity | Snow |
|---|---|---|---|---|---|---|---|
| 1787623219 | 16.11° C | 82% | 1011 hPa | - | - | - | - |
| 1787622318 | 16.11° C | 78% | 1011.4 hPa | - | - | - | - |
| 1787621418 | 15.56° C | 84% | 1011.7 hPa | - | - | - | - |
| 1787620518 | 15.56° C | 82% | 1012.1 hPa | - | - | - | - |
| 1787619618 | 15.56° C | 83% | 1012.2 hPa | - | - | - | - |
| 1787618718 | 16.11° C | 83% | 1012.6 hPa | - | - | - | - |
| 1787617817 | 16.11° C | 86% | 1013 hPa | - | - | - | - |
| 1787616917 | 16.11° C | 83% | 1013.4 hPa | - | - | - | - |
| 1787616021 | 16.67° C | 75% | 1013.5 hPa | - | - | - | - |
| 1787615121 | 17.78° C | 63% | 1013.1 hPa | - | - | - | - |
| 1787614221 | 17.78° C | 60% | 1012.4 hPa | - | - | - | - |
| 1787613320 | 17.78° C | 58% | 1012.5 hPa | - | - | - | - |
| 1787612420 | 17.78° C | 59% | 1012.6 hPa | - | - | - | - |
| 1787611520 | 17.78° C | 59% | 1012.7 hPa | - | - | - | - |
| 1787610620 | 17.78° C | 60% | 1012.8 hPa | - | - | - | - |
| 1787609720 | 17.78° C | 60% | 1012.7 hPa | - | - | - | - |
| 1787608819 | 18.89° C | 56% | 1012.9 hPa | - | - | - | - |
| 1787607919 | 18.33° C | 59% | 1013.2 hPa | - | - | - | - |
| 1787607019 | 18.33° C | 61% | 1013.5 hPa | - | - | - | - |
| 1787606119 | 18.33° C | 59% | 1013.8 hPa | - | - | - | - |
| 1787605219 | 17.78° C | 62% | 1013.6 hPa | - | - | - | - |
| 1787604319 | 17.78° C | 63% | 1013.7 hPa | - | - | - | - |
| 1787603418 | 17.22° C | 66% | 1013.8 hPa | - | - | - | - |
| 1787602518 | 17.22° C | 67% | 1014 hPa | - | - | - | - |
| 1787601618 | 17.78° C | 65% | 1013.9 hPa | - | - | - | - |
* Rain since midnight (hover to see other rain measurements)
** Current wind speed in m/s (hover to see current wind gust speed)